Fernando Pessoa — CSKQ — position and weather

sailwx.info

Track history (hours):
 
Tides and Currents Weather Stations Pressure Air Temp Water Temp Dewpoint Dewpoint Depression Visibility Wind Speed Wind Dir Waves Ship Positions

Fernando Pessoa

Last reported at 2015-May-06 11:33 UTC. Time now 2015-May-06 12:26 UTC.
Position N 38°39' W 009°05'.

Length 49 m.

MMSI: 263701470.

Date/timePositionNaut miles runAvg speedWind from/ knotsBaromVisibWave heightAir tempDewpointWater temp
2015-May-06 11:33N 38°39' W 009°05'0 0.0
2015-May-06 10:33N 38°39' W 009°05'3 2.7
2015-May-06 09:33N 38°41' W 009°08'3 2.8
2015-May-06 08:33N 38°39' W 009°05'1 1.0
2015-May-06 07:33N 38°39' W 009°06'3 2.8
2015-May-06 06:33N 38°42' W 009°08'1 0.6
2015-May-06 05:33N 38°42' W 009°08'0 0.0
2015-May-06 04:33N 38°42' W 009°08'4 4.1
2015-May-06 03:33N 38°39' W 009°05'0 0.0
2015-May-06 02:33N 38°39' W 009°05'0 0.0
2015-May-06 01:33N 38°39' W 009°05'0 0.3
2015-May-06 00:34N 38°39' W 009°05'0 0.0
2015-May-05 23:33N 38°39' W 009°05'0 0.2
2015-May-05 22:34N 38°39' W 009°05'1 0.5
2015-May-05 21:33N 38°39' W 009°06'1 0.9
2015-May-05 20:33N 38°39' W 009°05'0 0.0
2015-May-05 19:32N 38°39' W 009°05'4 3.7
2015-May-05 18:33N 38°42' W 009°08'2 1.7
2015-May-05 17:33N 38°40' W 009°07'2 2.2
2015-May-05 16:31N 38°39' W 009°05'0 0.0
2015-May-05 15:33N 38°39' W 009°05'0 0.0
2015-May-05 14:33N 38°39' W 009°05'0 0.0
2015-May-05 10:33N 38°39' W 009°05'1 1.0
2015-May-05 09:33N 38°39' W 009°06'0 0.2
2015-May-05 08:33N 38°39' W 009°06'3 3.3
2015-May-05 07:33N 38°42' W 009°08'0 0.4
2015-May-05 06:33N 38°42' W 009°08'4 0.4
2015-May-04 20:14N 38°39' W 009°05'3 4.6
2015-May-04 19:33N 38°41' W 009°08'2 2.2
2015-May-04 18:33N 38°40' W 009°06'3 3.2
2015-May-04 17:33N 38°42' W 009°08'0 0.0
2015-May-04 16:33N 38°42' W 009°08'1 0.7
2015-May-04 15:34N 38°42' W 009°08'4 3.3
2015-May-04 14:29N 38°39' W 009°05'2 1.8
2015-May-04 13:33N 38°40' W 009°07'1 0.6
2015-May-04 12:33N 38°40' W 009°06'1 0.9
2015-May-04 11:32N 38°39' W 009°05'0 0.0
2015-May-04 10:33N 38°39' W 009°05'3 3.1
2015-May-04 09:33N 38°41' W 009°08'3 3.1
2015-May-04 08:33N 38°39' W 009°05'1 1.4
2015-May-04 07:34N 38°40' W 009°06'3 2.8
2015-May-04 06:33N 38°42' W 009°08'0 0.2
2015-May-04 05:34N 38°42' W 009°08'0 0.0
2015-May-04 04:33N 38°42' W 009°08'4 4.1
2015-May-04 03:33N 38°39' W 009°05'0 0.0
2015-May-04 02:33N 38°39' W 009°05'0 0.0
2015-May-04 01:33N 38°39' W 009°05'0 0.5
2015-May-04 00:33N 38°39' W 009°05'0 0.0
2015-May-03 23:33N 38°39' W 009°05'0 0.1
2015-May-03 22:33N 38°39' W 009°05'1 1.0
2015-May-03 21:33N 38°40' W 009°06'0 0.0
2015-May-03 20:34N 38°40' W 009°06'0 0.1
2015-May-03 19:33N 38°40' W 009°07'1 1.2
2015-May-03 18:33N 38°41' W 009°08'0 0.2
2015-May-03 17:33N 38°41' W 009°08'0 0.0
2015-May-03 16:33N 38°41' W 009°08'0 0.2
2015-May-03 15:33N 38°41' W 009°08'0 0.5
2015-May-03 14:33N 38°41' W 009°08'3 2.8
2015-May-03 13:34N 38°39' W 009°05'0 0.0
2015-May-03 12:33N 38°39' W 009°05'1 1.3
2015-May-03 11:33N 38°40' W 009°06'0 0.1
2015-May-03 10:33N 38°40' W 009°06'1 1.3
2015-May-03 09:33N 38°39' W 009°05'  
2015-Apr-30 20:05N 38°39' W 009°05'4 7.1
2015-Apr-30 19:33N 38°42' W 009°08'0 0.3
2015-Apr-30 18:33N 38°42' W 009°08'1 1.2
2015-Apr-30 17:33N 38°41' W 009°08'3 2.9
2015-Apr-30 16:33N 38°39' W 009°05'4 3.9
2015-Apr-30 15:33N 38°42' W 009°08'1 1.4
2015-Apr-30 14:33N 38°41' W 009°08'0 0.2
2015-Apr-30 13:33N 38°41' W 009°08'0 0.2
2015-Apr-30 12:33N 38°41' W 009°08'1 0.7
2015-Apr-30 11:34N 38°41' W 009°08'0 0.5
2015-Apr-30 10:33N 38°41' W 009°08'3 2.9
2015-Apr-30 09:33N 38°39' W 009°05'1 1.2
2015-Apr-30 08:33N 38°40' W 009°06'3 3.1
2015-Apr-30 07:34N 38°42' W 009°08'1 0.9
2015-Apr-30 06:34N 38°42' W 009°08'3 3.3
2015-Apr-30 05:33N 38°39' W 009°05'4 0.4
2015-Apr-29 18:33N 38°42' W 009°08'0 0.2
2015-Apr-29 17:33N 38°42' W 009°08'2 2.4
2015-Apr-29 16:33N 38°40' W 009°07'2 1.8
2015-Apr-29 15:33N 38°39' W 009°05'1 1.0
2015-Apr-29 14:33N 38°40' W 009°06'1 1.3
2015-Apr-29 13:33N 38°39' W 009°05'0 0.0
2015-Apr-29 12:33N 38°39' W 009°05'0 0.0
2015-Apr-29 11:33N 38°39' W 009°05'0 0.0
2015-Apr-29 10:34N 38°39' W 009°05'0 0.0
2015-Apr-29 09:34N 38°39' W 009°05'1 1.2
2015-Apr-29 08:33N 38°40' W 009°06'1 0.6
2015-Apr-29 07:34N 38°40' W 009°07'2 1.9
2015-Apr-29 06:33N 38°39' W 009°05'0 0.0
2015-Apr-29 05:33N 38°39' W 009°05'0 0.0
2015-Apr-29 04:32N 38°39' W 009°05'0 0.0
2015-Apr-29 03:33N 38°39' W 009°05'0 0.0
2015-Apr-29 02:33N 38°39' W 009°05'0 0.0
2015-Apr-29 01:33N 38°39' W 009°05'0 0.0
2015-Apr-29 00:32N 38°39' W 009°05'0 0.0
2015-Apr-28 23:33N 38°39' W 009°05'4 4.0
2015-Apr-28 22:34N 38°42' W 009°08'1 1.1
2015-Apr-28 21:33N 38°41' W 009°08'0 0.2
2015-Apr-28 20:33N 38°41' W 009°08'3 2.9
2015-Apr-28 19:33N 38°39' W 009°05'0 0.4
2015-Apr-28 18:33N 38°39' W 009°05'0 0.4
2015-Apr-28 17:33N 38°39' W 009°05'1 1.4
2015-Apr-28 16:33N 38°40' W 009°06'1 1.3
2015-Apr-28 15:33N 38°39' W 009°05'0 0.0
2015-Apr-28 12:26N 38°39' W 009°05'0 0.0
2015-Apr-28 11:33N 38°39' W 009°05'0 0.0
2015-Apr-28 10:28N 38°39' W 009°05'0 0.0
2015-Apr-28 09:31N 38°39' W 009°05'0 0.1
2015-Apr-28 08:33N 38°39' W 009°05'0 0.5
2015-Apr-28 07:33N 38°39' W 009°05'1 0.6
2015-Apr-28 06:33N 38°39' W 009°05'0 0.0
2015-Apr-28 05:33N 38°39' W 009°05'4 0.4
2015-Apr-27 18:33N 38°42' W 009°08'0 0.2
2015-Apr-27 17:34N 38°42' W 009°08'2 2.4
2015-Apr-27 16:34N 38°40' W 009°07'2 1.8
2015-Apr-27 15:33N 38°39' W 009°05'1 1.0
2015-Apr-27 14:34N 38°40' W 009°06'1 1.0
2015-Apr-27 13:21N 38°39' W 009°05'0 0.0
2015-Apr-27 12:30N 38°39' W 009°05'0 0.0
2015-Apr-27 11:33N 38°39' W 009°05'0 0.0
2015-Apr-27 10:32N 38°39' W 009°05'0 0.1
2015-Apr-27 09:33N 38°39' W 009°05'1 1.2
2015-Apr-27 08:33N 38°40' W 009°06'1 0.6
2015-Apr-27 07:33N 38°40' W 009°07'2 1.7
2015-Apr-27 06:33N 38°39' W 009°05'0 0.0
2015-Apr-27 05:34N 38°39' W 009°05'0 0.0
2015-Apr-27 04:33N 38°39' W 009°05'0 0.0
2015-Apr-27 03:33N 38°39' W 009°05'0 0.0
2015-Apr-27 02:33N 38°39' W 009°05'0 0.0
2015-Apr-27 01:33N 38°39' W 009°05'0 0.0
2015-Apr-27 00:33N 38°39' W 009°05'0 0.0
2015-Apr-26 23:33N 38°39' W 009°05'0 0.0
2015-Apr-26 21:26N 38°39' W 009°05'3 3.2
2015-Apr-26 20:34N 38°41' W 009°08'3 2.7
2015-Apr-26 19:33N 38°39' W 009°05'2 2.1
2015-Apr-26 18:33N 38°40' W 009°07'1 0.7
2015-Apr-26 17:33N 38°40' W 009°06'0 0.2
2015-Apr-26 16:33N 38°40' W 009°07'0 0.0
2015-Apr-26 15:33N 38°40' W 009°07'0 0.1
2015-Apr-26 14:33N 38°40' W 009°07'0 0.4
2015-Apr-26 13:33N 38°40' W 009°06'0 0.0
2015-Apr-26 12:33N 38°40' W 009°06'1 1.4
2015-Apr-26 11:33N 38°39' W 009°05'  
Track history (hours):
 
Tides and Currents Weather Stations Pressure Air Temp Water Temp Dewpoint Dewpoint Depression Visibility Wind Speed Wind Dir Waves Ship Positions

Fernando Pessoa

Last reported at 2015-May-06 11:33 UTC. Time now 2015-May-06 12:26 UTC.
Position N 38°39' W 009°05'.

Length 49 m.

MMSI: 263701470.

Date/timePositionNaut miles runAvg speedWind from/ knotsBaromVisibWave heightAir tempDewpointWater temp
2015-May-06 11:33N 38°39' W 009°05'0 0.0
2015-May-06 10:33N 38°39' W 009°05'3 2.7
2015-May-06 09:33N 38°41' W 009°08'3 2.8
2015-May-06 08:33N 38°39' W 009°05'1 1.0
2015-May-06 07:33N 38°39' W 009°06'3 2.8
2015-May-06 06:33N 38°42' W 009°08'1 0.6
2015-May-06 05:33N 38°42' W 009°08'0 0.0
2015-May-06 04:33N 38°42' W 009°08'4 4.1
2015-May-06 03:33N 38°39' W 009°05'0 0.0
2015-May-06 02:33N 38°39' W 009°05'0 0.0
2015-May-06 01:33N 38°39' W 009°05'0 0.3
2015-May-06 00:34N 38°39' W 009°05'0 0.0
2015-May-05 23:33N 38°39' W 009°05'0 0.2
2015-May-05 22:34N 38°39' W 009°05'1 0.5
2015-May-05 21:33N 38°39' W 009°06'1 0.9
2015-May-05 20:33N 38°39' W 009°05'0 0.0
2015-May-05 19:32N 38°39' W 009°05'4 3.7
2015-May-05 18:33N 38°42' W 009°08'2 1.7
2015-May-05 17:33N 38°40' W 009°07'2 2.2
2015-May-05 16:31N 38°39' W 009°05'0 0.0
2015-May-05 15:33N 38°39' W 009°05'0 0.0
2015-May-05 14:33N 38°39' W 009°05'0 0.0
2015-May-05 10:33N 38°39' W 009°05'1 1.0
2015-May-05 09:33N 38°39' W 009°06'0 0.2
2015-May-05 08:33N 38°39' W 009°06'3 3.3
2015-May-05 07:33N 38°42' W 009°08'0 0.4
2015-May-05 06:33N 38°42' W 009°08'4 0.4
2015-May-04 20:14N 38°39' W 009°05'3 4.6
2015-May-04 19:33N 38°41' W 009°08'2 2.2
2015-May-04 18:33N 38°40' W 009°06'3 3.2
2015-May-04 17:33N 38°42' W 009°08'0 0.0
2015-May-04 16:33N 38°42' W 009°08'1 0.7
2015-May-04 15:34N 38°42' W 009°08'4 3.3
2015-May-04 14:29N 38°39' W 009°05'2 1.8
2015-May-04 13:33N 38°40' W 009°07'1 0.6
2015-May-04 12:33N 38°40' W 009°06'1 0.9
2015-May-04 11:32N 38°39' W 009°05'0 0.0
2015-May-04 10:33N 38°39' W 009°05'3 3.1
2015-May-04 09:33N 38°41' W 009°08'3 3.1
2015-May-04 08:33N 38°39' W 009°05'1 1.4
2015-May-04 07:34N 38°40' W 009°06'3 2.8
2015-May-04 06:33N 38°42' W 009°08'0 0.2
2015-May-04 05:34N 38°42' W 009°08'0 0.0
2015-May-04 04:33N 38°42' W 009°08'4 4.1
2015-May-04 03:33N 38°39' W 009°05'0 0.0
2015-May-04 02:33N 38°39' W 009°05'0 0.0
2015-May-04 01:33N 38°39' W 009°05'0 0.5
2015-May-04 00:33N 38°39' W 009°05'0 0.0
2015-May-03 23:33N 38°39' W 009°05'0 0.1
2015-May-03 22:33N 38°39' W 009°05'1 1.0
2015-May-03 21:33N 38°40' W 009°06'0 0.0
2015-May-03 20:34N 38°40' W 009°06'0 0.1
2015-May-03 19:33N 38°40' W 009°07'1 1.2
2015-May-03 18:33N 38°41' W 009°08'0 0.2
2015-May-03 17:33N 38°41' W 009°08'0 0.0
2015-May-03 16:33N 38°41' W 009°08'0 0.2
2015-May-03 15:33N 38°41' W 009°08'0 0.5
2015-May-03 14:33N 38°41' W 009°08'3 2.8
2015-May-03 13:34N 38°39' W 009°05'0 0.0
2015-May-03 12:33N 38°39' W 009°05'1 1.3
2015-May-03 11:33N 38°40' W 009°06'0 0.1
2015-May-03 10:33N 38°40' W 009°06'1 1.3
2015-May-03 09:33N 38°39' W 009°05'  
2015-Apr-30 20:05N 38°39' W 009°05'4 7.1
2015-Apr-30 19:33N 38°42' W 009°08'0 0.3
2015-Apr-30 18:33N 38°42' W 009°08'1 1.2
2015-Apr-30 17:33N 38°41' W 009°08'3 2.9
2015-Apr-30 16:33N 38°39' W 009°05'4 3.9
2015-Apr-30 15:33N 38°42' W 009°08'1 1.4
2015-Apr-30 14:33N 38°41' W 009°08'0 0.2
2015-Apr-30 13:33N 38°41' W 009°08'0 0.2
2015-Apr-30 12:33N 38°41' W 009°08'1 0.7
2015-Apr-30 11:34N 38°41' W 009°08'0 0.5
2015-Apr-30 10:33N 38°41' W 009°08'3 2.9
2015-Apr-30 09:33N 38°39' W 009°05'1 1.2
2015-Apr-30 08:33N 38°40' W 009°06'3 3.1
2015-Apr-30 07:34N 38°42' W 009°08'1 0.9
2015-Apr-30 06:34N 38°42' W 009°08'3 3.3
2015-Apr-30 05:33N 38°39' W 009°05'4 0.4
2015-Apr-29 18:33N 38°42' W 009°08'0 0.2
2015-Apr-29 17:33N 38°42' W 009°08'2 2.4
2015-Apr-29 16:33N 38°40' W 009°07'2 1.8
2015-Apr-29 15:33N 38°39' W 009°05'1 1.0
2015-Apr-29 14:33N 38°40' W 009°06'1 1.3
2015-Apr-29 13:33N 38°39' W 009°05'0 0.0
2015-Apr-29 12:33N 38°39' W 009°05'0 0.0
2015-Apr-29 11:33N 38°39' W 009°05'0 0.0
2015-Apr-29 10:34N 38°39' W 009°05'0 0.0
2015-Apr-29 09:34N 38°39' W 009°05'1 1.2
2015-Apr-29 08:33N 38°40' W 009°06'1 0.6
2015-Apr-29 07:34N 38°40' W 009°07'2 1.9
2015-Apr-29 06:33N 38°39' W 009°05'0 0.0
2015-Apr-29 05:33N 38°39' W 009°05'0 0.0
2015-Apr-29 04:32N 38°39' W 009°05'0 0.0
2015-Apr-29 03:33N 38°39' W 009°05'0 0.0
2015-Apr-29 02:33N 38°39' W 009°05'0 0.0
2015-Apr-29 01:33N 38°39' W 009°05'0 0.0
2015-Apr-29 00:32N 38°39' W 009°05'0 0.0
2015-Apr-28 23:33N 38°39' W 009°05'4 4.0
2015-Apr-28 22:34N 38°42' W 009°08'1 1.1
2015-Apr-28 21:33N 38°41' W 009°08'0 0.2
2015-Apr-28 20:33N 38°41' W 009°08'3 2.9
2015-Apr-28 19:33N 38°39' W 009°05'0 0.4
2015-Apr-28 18:33N 38°39' W 009°05'0 0.4
2015-Apr-28 17:33N 38°39' W 009°05'1 1.4
2015-Apr-28 16:33N 38°40' W 009°06'1 1.3
2015-Apr-28 15:33N 38°39' W 009°05'0 0.0
2015-Apr-28 12:26N 38°39' W 009°05'0 0.0
2015-Apr-28 11:33N 38°39' W 009°05'0 0.0
2015-Apr-28 10:28N 38°39' W 009°05'0 0.0
2015-Apr-28 09:31N 38°39' W 009°05'0 0.1
2015-Apr-28 08:33N 38°39' W 009°05'0 0.5
2015-Apr-28 07:33N 38°39' W 009°05'1 0.6
2015-Apr-28 06:33N 38°39' W 009°05'0 0.0
2015-Apr-28 05:33N 38°39' W 009°05'4 0.4
2015-Apr-27 18:33N 38°42' W 009°08'0 0.2
2015-Apr-27 17:34N 38°42' W 009°08'2 2.4
2015-Apr-27 16:34N 38°40' W 009°07'2 1.8
2015-Apr-27 15:33N 38°39' W 009°05'1 1.0
2015-Apr-27 14:34N 38°40' W 009°06'1 1.0
2015-Apr-27 13:21N 38°39' W 009°05'0 0.0
2015-Apr-27 12:30N 38°39' W 009°05'0 0.0
2015-Apr-27 11:33N 38°39' W 009°05'0 0.0
2015-Apr-27 10:32N 38°39' W 009°05'0 0.1
2015-Apr-27 09:33N 38°39' W 009°05'1 1.2
2015-Apr-27 08:33N 38°40' W 009°06'1 0.6
2015-Apr-27 07:33N 38°40' W 009°07'2 1.7
2015-Apr-27 06:33N 38°39' W 009°05'0 0.0
2015-Apr-27 05:34N 38°39' W 009°05'0 0.0
2015-Apr-27 04:33N 38°39' W 009°05'0 0.0
2015-Apr-27 03:33N 38°39' W 009°05'0 0.0
2015-Apr-27 02:33N 38°39' W 009°05'0 0.0
2015-Apr-27 01:33N 38°39' W 009°05'0 0.0
2015-Apr-27 00:33N 38°39' W 009°05'0 0.0
2015-Apr-26 23:33N 38°39' W 009°05'0 0.0
2015-Apr-26 21:26N 38°39' W 009°05'3 3.2
2015-Apr-26 20:34N 38°41' W 009°08'3 2.7
2015-Apr-26 19:33N 38°39' W 009°05'2 2.1
2015-Apr-26 18:33N 38°40' W 009°07'1 0.7
2015-Apr-26 17:33N 38°40' W 009°06'0 0.2
2015-Apr-26 16:33N 38°40' W 009°07'0 0.0
2015-Apr-26 15:33N 38°40' W 009°07'0 0.1
2015-Apr-26 14:33N 38°40' W 009°07'0 0.4
2015-Apr-26 13:33N 38°40' W 009°06'0 0.0
2015-Apr-26 12:33N 38°40' W 009°06'1 1.4
2015-Apr-26 11:33N 38°39' W 009°05'  

Dump ship's entire track history